National Weather Service Raw Text Product

Displaying AFOS PIL: TAFMCW Received: 2018-02-09 07:30 UTC


289 
FTUS43 KDMX 090730 AAA
TAFMCW
TAF AMD
KMCW 090730Z 0908/1006 02011KT 5SM -SN SCT004 BKN045 OVC080
     FM091000 01014KT P6SM SCT035 BKN100
     FM091600 01011KT P6SM SCT150
     FM100000 34008KT P6SM BKN030=